createdAt,value
2016-05-06T00:00:33.025Z,12.7
2016-05-06T00:01:32.824Z,12.75
2016-05-06T00:02:32.812Z,12.67
2016-05-06T00:03:32.940Z,12.71
2016-05-06T00:04:32.927Z,12.7
2016-05-06T00:05:32.897Z,12.74
2016-05-06T00:06:32.869Z,12.69
2016-05-06T00:07:32.855Z,12.63
2016-05-06T00:08:32.828Z,12.62
2016-05-06T00:09:32.502Z,12.6
2016-05-06T00:10:32.943Z,12.59
2016-05-06T00:11:32.773Z,12.62
2016-05-06T00:12:32.745Z,12.6
2016-05-06T00:13:32.716Z,12.62
2016-05-06T00:14:32.688Z,12.66
2016-05-06T00:15:32.659Z,12.64
2016-05-06T00:16:32.490Z,12.67
2016-05-06T00:17:32.632Z,12.7
2016-05-06T00:18:32.605Z,12.74
2016-05-06T00:19:32.576Z,12.7
2016-05-06T00:20:32.587Z,12.7
2016-05-06T00:21:32.544Z,12.62
2016-05-06T00:22:32.358Z,12.6
2016-05-06T00:23:32.486Z,12.57
2016-05-06T00:24:32.473Z,12.59
2016-05-06T00:25:32.476Z,12.56
2016-05-06T00:26:32.416Z,12.63
2016-05-06T00:27:32.388Z,12.59
2016-05-06T00:28:32.203Z,12.63
2016-05-06T00:29:32.362Z,12.64
2016-05-06T00:30:32.334Z,12.66
2016-05-06T00:31:32.304Z,12.54
2016-05-06T00:32:32.276Z,12.52
2016-05-06T00:33:32.279Z,12.48
2016-05-06T00:34:32.234Z,12.42
2016-05-06T00:35:32.223Z,12.44
2016-05-06T00:36:32.178Z,12.51
2016-05-06T00:37:32.164Z,12.44
2016-05-06T00:38:32.151Z,12.41
2016-05-06T00:39:32.123Z,12.41
2016-05-06T00:40:32.110Z,12.44
2016-05-06T00:41:32.081Z,12.48
2016-05-06T00:42:32.053Z,12.48
2016-05-06T00:43:32.025Z,12.31
2016-05-06T00:44:32.011Z,12.45
2016-05-06T00:45:31.983Z,12.34
2016-05-06T00:46:31.954Z,12.46
2016-05-06T00:47:31.785Z,12.48
2016-05-06T00:48:31.913Z,12.42
2016-05-06T00:49:31.900Z,12.42
2016-05-06T00:50:31.715Z,12.46
2016-05-06T00:51:31.702Z,12.39
2016-05-06T00:52:31.658Z,12.38
2016-05-06T00:53:31.802Z,12.3
2016-05-06T00:54:31.632Z,12.39
2016-05-06T00:55:32.182Z,12.24
2016-05-06T00:56:31.732Z,12.41
2016-05-06T00:57:31.702Z,12.46
2016-05-06T00:58:31.690Z,12.34
2016-05-06T00:59:31.676Z,12.37
2016-05-06T01:00:31.649Z,12.33
2016-05-06T01:01:31.463Z,12.27
2016-05-06T01:02:31.623Z,12.44
2016-05-06T01:03:31.562Z,12.39
2016-05-06T01:04:31.550Z,12.33
2016-05-06T01:05:31.521Z,12.29
2016-05-06T01:06:31.509Z,12.41
2016-05-06T01:07:31.479Z,12.24
2016-05-06T01:08:31.467Z,12.41
2016-05-06T01:09:31.439Z,12.39
2016-05-06T01:10:31.628Z,12.31
2016-05-06T01:11:31.225Z,12.26
2016-05-06T01:12:31.367Z,12.24
2016-05-06T01:13:31.340Z,12.33
2016-05-06T01:14:31.170Z,12.31
2016-05-06T01:15:31.314Z,12.24
2016-05-06T01:16:31.285Z,12.21
2016-05-06T01:17:31.241Z,12.26
2016-05-06T01:18:31.088Z,12.16
2016-05-06T01:19:31.059Z,12.24
2016-05-06T01:20:31.030Z,12.21
2016-05-06T01:21:31.157Z,12.23
2016-05-06T01:22:31.130Z,12.13
2016-05-06T01:23:31.132Z,12.06
2016-05-06T01:24:30.932Z,12.06
2016-05-06T01:25:31.059Z,12.02
2016-05-06T01:26:31.031Z,12.04
2016-05-06T01:27:31.018Z,11.93
2016-05-06T01:28:30.990Z,12.02
2016-05-06T01:29:30.976Z,12.01
2016-05-06T01:30:30.979Z,11.99
2016-05-06T01:31:30.763Z,11.97
2016-05-06T01:32:30.906Z,12.01
2016-05-06T01:33:30.878Z,12.02
2016-05-06T01:34:30.864Z,11.87
2016-05-06T01:35:30.837Z,11.87
2016-05-06T01:36:30.807Z,11.87
2016-05-06T01:37:30.638Z,11.86
2016-05-06T01:38:30.781Z,11.86
2016-05-06T01:39:30.738Z,11.89
2016-05-06T01:40:30.725Z,11.89
2016-05-06T01:41:30.555Z,11.89
2016-05-06T01:42:30.668Z,11.82
2016-05-06T01:43:30.639Z,11.83
2016-05-06T01:44:30.626Z,11.74
2016-05-06T01:45:30.597Z,11.77
2016-05-06T01:46:30.584Z,11.74
2016-05-06T01:47:30.572Z,11.65
2016-05-06T01:48:30.528Z,11.59
2016-05-06T01:49:30.514Z,11.64
2016-05-06T01:50:30.485Z,11.64
2016-05-06T01:51:30.458Z,11.72
2016-05-06T01:52:30.430Z,11.67
2016-05-06T01:53:30.416Z,11.68
2016-05-06T01:54:30.402Z,11.62
2016-05-06T01:55:30.484Z,11.68
2016-05-06T01:56:30.346Z,11.64
2016-05-06T01:57:30.161Z,11.59
2016-05-06T01:58:30.288Z,11.62
2016-05-06T01:59:30.276Z,11.57
2016-05-06T02:00:30.247Z,11.56
2016-05-06T02:01:29.921Z,11.54
2016-05-06T02:02:30.049Z,11.56
2016-05-06T02:03:30.036Z,11.56
2016-05-06T02:04:29.993Z,11.56
2016-05-06T02:05:30.135Z,11.5
2016-05-06T02:06:30.107Z,11.54
2016-05-06T02:07:30.094Z,11.44
2016-05-06T02:08:30.065Z,11.46
2016-05-06T02:09:30.037Z,11.43
2016-05-06T02:10:30.414Z,11.34
2016-05-06T02:11:29.839Z,11.39
2016-05-06T02:12:29.826Z,11.34
2016-05-06T02:13:29.954Z,11.28
2016-05-06T02:14:29.784Z,11.32
2016-05-06T02:15:29.741Z,11.34
2016-05-06T02:16:29.869Z,11.36
2016-05-06T02:17:29.856Z,11.32
2016-05-06T02:18:29.827Z,11.29
2016-05-06T02:19:29.658Z,11.29
2016-05-06T02:20:29.630Z,11.27
2016-05-06T02:21:29.757Z,11.25
2016-05-06T02:22:29.572Z,11.29
2016-05-06T02:23:29.562Z,11.32
2016-05-06T02:24:29.690Z,11.29
2016-05-06T02:25:29.365Z,11.24
2016-05-06T02:26:29.634Z,11.34
2016-05-06T02:27:29.620Z,11.24
2016-05-06T02:28:29.592Z,11.21
2016-05-06T02:29:29.578Z,11.17
2016-05-06T02:30:29.379Z,11.19
2016-05-06T02:31:29.522Z,11.2
2016-05-06T02:32:29.508Z,11.17
2016-05-06T02:33:29.480Z,11.1
2016-05-06T02:34:29.452Z,11.06
2016-05-06T02:35:29.439Z,11.11
2016-05-06T02:36:29.410Z,11.06
2016-05-06T02:37:29.242Z,11.11
2016-05-06T02:38:29.353Z,11.09
2016-05-06T02:39:29.325Z,11.06
2016-05-06T02:40:29.155Z,11.1
2016-05-06T02:41:29.282Z,11.07
2016-05-06T02:42:29.254Z,11.02
2016-05-06T02:43:29.242Z,11.07
2016-05-06T02:44:29.213Z,11.06
2016-05-06T02:45:29.184Z,11.07
2016-05-06T02:46:29.172Z,11.07
2016-05-06T02:47:29.143Z,11.06
2016-05-06T02:48:29.114Z,10.91
2016-05-06T02:49:29.101Z,11.06
2016-05-06T02:50:29.074Z,11.01
2016-05-06T02:51:29.045Z,10.95
2016-05-06T02:52:29.015Z,10.96
2016-05-06T02:53:28.988Z,10.94
2016-05-06T02:54:28.973Z,10.89
2016-05-06T02:55:29.087Z,10.94
2016-05-06T02:56:28.933Z,10.91
2016-05-06T02:57:28.904Z,10.92
2016-05-06T02:58:28.876Z,10.94
2016-05-06T02:59:28.863Z,10.78
2016-05-06T03:00:28.834Z,10.78
2016-05-06T03:01:28.821Z,10.77
2016-05-06T03:02:28.825Z,10.77
2016-05-06T03:03:28.764Z,10.86
2016-05-06T03:04:28.736Z,10.86
2016-05-06T03:05:28.707Z,10.86
2016-05-06T03:06:28.694Z,10.81
2016-05-06T03:07:28.666Z,10.74
2016-05-06T03:08:28.652Z,10.8
2016-05-06T03:09:28.624Z,10.91
2016-05-06T03:10:28.455Z,10.84
2016-05-06T03:11:28.567Z,10.78
2016-05-06T03:12:28.538Z,10.86
2016-05-06T03:13:28.369Z,10.77
2016-05-06T03:14:28.512Z,10.76
2016-05-06T03:15:28.469Z,10.8
2016-05-06T03:16:28.440Z,10.74
2016-05-06T03:17:28.427Z,10.77
2016-05-06T03:18:28.413Z,10.81
2016-05-06T03:19:28.385Z,10.76
2016-05-06T03:20:28.232Z,10.76
2016-05-06T03:21:28.328Z,10.74
2016-05-06T03:22:28.143Z,10.74
2016-05-06T03:23:28.287Z,10.76
2016-05-06T03:24:28.259Z,10.66
2016-05-06T03:25:28.229Z,10.71
2016-05-06T03:26:28.310Z,10.66
2016-05-06T03:27:28.173Z,10.76
2016-05-06T03:28:28.159Z,10.7
2016-05-06T03:29:28.147Z,10.74
2016-05-06T03:30:28.118Z,10.65
2016-05-06T03:31:28.089Z,10.77
2016-05-06T03:32:28.061Z,10.71
2016-05-06T03:33:28.048Z,10.71
2016-05-06T03:34:28.003Z,10.71
2016-05-06T03:35:28.006Z,10.73
2016-05-06T03:36:27.962Z,10.68
2016-05-06T03:37:27.934Z,10.65
2016-05-06T03:38:27.749Z,10.6
2016-05-06T03:39:27.908Z,10.65
2016-05-06T03:40:27.864Z,10.63
2016-05-06T03:41:27.908Z,10.62
2016-05-06T03:42:27.814Z,10.6
2016-05-06T03:43:27.790Z,10.62
2016-05-06T03:44:27.760Z,10.62
2016-05-06T03:45:27.732Z,10.58
2016-05-06T03:46:27.563Z,10.59
2016-05-06T03:47:27.691Z,10.62
2016-05-06T03:48:27.661Z,10.55
2016-05-06T03:49:27.649Z,10.56
2016-05-06T03:50:28.026Z,10.51
2016-05-06T03:51:27.591Z,10.51
2016-05-06T03:52:27.407Z,10.46
2016-05-06T03:53:27.534Z,10.47
2016-05-06T03:54:27.522Z,10.47
2016-05-06T03:55:27.509Z,10.39
2016-05-06T03:56:27.340Z,10.55
2016-05-06T03:57:27.451Z,10.53
2016-05-06T03:58:27.423Z,10.4
2016-05-06T03:59:27.238Z,10.42
2016-05-06T04:00:27.366Z,10.47
2016-05-06T04:01:27.353Z,10.44
2016-05-06T04:02:27.167Z,10.44
2016-05-06T04:03:27.312Z,10.47
2016-05-06T04:04:27.267Z,10.58
2016-05-06T04:05:27.097Z,10.55
2016-05-06T04:06:27.226Z,10.63
2016-05-06T04:07:27.198Z,10.66
2016-05-06T04:08:27.012Z,10.71
2016-05-06T04:09:27.171Z,10.73
2016-05-06T04:10:27.128Z,10.68
2016-05-06T04:11:27.113Z,10.77
2016-05-06T04:12:27.070Z,10.77
2016-05-06T04:13:27.057Z,10.77
2016-05-06T04:14:27.028Z,10.76
2016-05-06T04:15:27.000Z,10.73
2016-05-06T04:16:26.986Z,10.78
2016-05-06T04:17:26.802Z,10.73
2016-05-06T04:18:26.929Z,10.74
2016-05-06T04:19:26.745Z,10.77
2016-05-06T04:20:26.747Z,10.77
2016-05-06T04:21:26.860Z,10.7
2016-05-06T04:22:26.831Z,10.73
2016-05-06T04:23:26.802Z,10.7
2016-05-06T04:24:26.790Z,10.74
2016-05-06T04:25:26.604Z,10.7
2016-05-06T04:26:26.748Z,10.78
2016-05-06T04:27:26.720Z,10.66
2016-05-06T04:28:26.691Z,10.78
2016-05-06T04:29:26.678Z,10.77
2016-05-06T04:30:26.649Z,10.77
2016-05-06T04:31:26.621Z,10.91
2016-05-06T04:32:26.593Z,10.86
2016-05-06T04:33:26.595Z,10.98
2016-05-06T04:34:26.535Z,11.06
2016-05-06T04:35:26.523Z,11.11
2016-05-06T04:36:26.494Z,11.27
2016-05-06T04:37:26.465Z,11.32
2016-05-06T04:38:26.436Z,11.35
2016-05-06T04:39:26.111Z,11.44
2016-05-06T04:40:26.395Z,11.52
2016-05-06T04:41:26.383Z,11.56
2016-05-06T04:42:26.353Z,11.57
2016-05-06T04:43:26.325Z,11.53
2016-05-06T04:44:26.297Z,11.52
2016-05-06T04:45:26.127Z,11.53
2016-05-06T04:46:26.255Z,11.7
2016-05-06T04:47:26.242Z,11.67
2016-05-06T04:48:26.214Z,11.82
2016-05-06T04:49:26.169Z,11.78
2016-05-06T04:50:26.000Z,11.89
2016-05-06T04:51:25.987Z,12.04
2016-05-06T04:52:26.099Z,12.08
2016-05-06T04:53:26.102Z,12.06
2016-05-06T04:54:26.058Z,11.99
2016-05-06T04:55:26.045Z,11.93
2016-05-06T04:56:26.110Z,12.02
2016-05-06T04:57:25.832Z,12.06
2016-05-06T04:58:25.818Z,12.08
2016-05-06T04:59:25.946Z,12.09
2016-05-06T05:00:25.917Z,11.99
2016-05-06T05:01:25.905Z,12.01
2016-05-06T05:02:25.876Z,11.99
2016-05-06T05:03:25.862Z,11.83
2016-05-06T05:04:25.835Z,11.87
2016-05-06T05:05:25.806Z,11.97
2016-05-06T05:06:25.793Z,11.87
2016-05-06T05:07:25.764Z,11.96
2016-05-06T05:08:25.752Z,12.01
2016-05-06T05:09:25.708Z,11.96
2016-05-06T05:10:25.718Z,11.99
2016-05-06T05:11:26.048Z,12.01
2016-05-06T05:12:25.754Z,12.02
2016-05-06T05:13:25.789Z,12.11
2016-05-06T05:14:25.758Z,12.09
2016-05-06T05:15:25.792Z,12.13
2016-05-06T05:16:25.483Z,12.11
2016-05-06T05:17:25.800Z,12.09
2016-05-06T05:18:25.633Z,12.13
2016-05-06T05:19:25.620Z,12.09
2016-05-06T05:20:25.608Z,12.2
2016-05-06T05:21:25.764Z,12.15
2016-05-06T05:22:25.741Z,12.2
2016-05-06T05:23:25.719Z,12.16
2016-05-06T05:24:25.712Z,12.12
2016-05-06T05:25:25.690Z,12.26
2016-05-06T05:26:26.577Z,12.24
2016-05-06T05:27:25.640Z,12.23
2016-05-06T05:28:25.472Z,12.16
2016-05-06T05:29:25.603Z,12.21
2016-05-06T05:30:25.591Z,12.31
2016-05-06T05:31:25.580Z,12.33
2016-05-06T05:32:25.584Z,12.31
2016-05-06T05:33:25.524Z,12.48
2016-05-06T05:34:25.497Z,12.44
2016-05-06T05:35:25.328Z,12.45
2016-05-06T05:36:25.457Z,12.57
2016-05-06T05:37:25.287Z,12.57
2016-05-06T05:38:25.401Z,12.64
2016-05-06T05:39:25.404Z,12.7
2016-05-06T05:40:25.360Z,12.62
2016-05-06T05:41:25.191Z,12.74
2016-05-06T05:42:25.319Z,12.77
2016-05-06T05:43:25.305Z,12.88
2016-05-06T05:44:25.277Z,12.87
2016-05-06T05:45:25.249Z,12.92
2016-05-06T05:46:25.219Z,12.99
2016-05-06T05:47:25.207Z,13
2016-05-06T05:48:25.022Z,13.06
2016-05-06T05:49:25.166Z,13.09
2016-05-06T05:50:24.980Z,13.11
2016-05-06T05:51:24.952Z,13.17
2016-05-06T05:52:25.095Z,13.2
2016-05-06T05:53:24.910Z,13.24
2016-05-06T05:54:25.070Z,13.33
2016-05-06T05:55:25.041Z,13.38
2016-05-06T05:56:25.387Z,13.59
2016-05-06T05:57:24.999Z,13.58
2016-05-06T05:58:24.815Z,13.56
2016-05-06T05:59:24.786Z,13.63
2016-05-06T06:00:25.164Z,13.67
2016-05-06T06:01:24.745Z,13.8
2016-05-06T06:02:24.872Z,13.83
2016-05-06T06:03:24.844Z,13.92
2016-05-06T06:04:24.831Z,13.96
2016-05-06T06:05:24.802Z,14.04
2016-05-06T06:06:24.773Z,14.14
2016-05-06T06:07:24.761Z,14.13
2016-05-06T06:08:24.576Z,14.21
2016-05-06T06:09:24.703Z,14.28
2016-05-06T06:10:24.691Z,14.24
2016-05-06T06:11:24.677Z,14.29
2016-05-06T06:12:24.649Z,14.39
2016-05-06T06:13:24.636Z,14.44
2016-05-06T06:14:24.608Z,14.53
2016-05-06T06:15:24.580Z,14.54
2016-05-06T06:16:24.566Z,14.6
2016-05-06T06:17:24.396Z,14.57
2016-05-06T06:18:24.510Z,14.62
2016-05-06T06:19:24.496Z,14.57
2016-05-06T06:20:24.483Z,14.54
2016-05-06T06:21:24.299Z,14.62
2016-05-06T06:22:24.426Z,14.71
2016-05-06T06:23:24.413Z,14.64
2016-05-06T06:24:24.384Z,14.8
2016-05-06T06:25:24.372Z,14.81
2016-05-06T06:26:24.374Z,14.84
2016-05-06T06:27:24.174Z,14.88
2016-05-06T06:28:24.161Z,14.86
2016-05-06T06:29:24.289Z,14.9
2016-05-06T06:30:24.259Z,14.91
2016-05-06T06:31:24.232Z,14.99
2016-05-06T06:32:24.062Z,14.99
2016-05-06T06:33:24.205Z,15.08
2016-05-06T06:34:24.178Z,15.11
2016-05-06T06:35:24.164Z,15.11
2016-05-06T06:36:24.135Z,15.26
2016-05-06T06:37:23.951Z,15.39
2016-05-06T06:38:24.094Z,15.35
2016-05-06T06:39:24.081Z,15.46
2016-05-06T06:40:24.053Z,15.41
2016-05-06T06:41:23.836Z,15.59
2016-05-06T06:42:24.011Z,15.6
2016-05-06T06:43:23.997Z,15.68
2016-05-06T06:44:23.969Z,15.81
2016-05-06T06:45:23.941Z,15.89
2016-05-06T06:46:23.928Z,15.96
2016-05-06T06:47:23.900Z,15.96
2016-05-06T06:48:23.886Z,16.09
2016-05-06T06:49:23.858Z,16.35
2016-05-06T06:50:23.845Z,16.34
2016-05-06T06:51:23.832Z,16.53
2016-05-06T06:52:23.804Z,16.67
2016-05-06T06:53:23.791Z,16.71
2016-05-06T06:54:23.762Z,16.99
2016-05-06T06:55:23.593Z,17.28
2016-05-06T06:56:23.595Z,17.71
2016-05-06T06:57:23.707Z,18.46
2016-05-06T06:58:23.554Z,19.31
2016-05-06T06:59:23.665Z,19.95
2016-05-06T07:00:23.654Z,20.69
2016-05-06T07:01:23.625Z,21.06
2016-05-06T07:02:23.628Z,21.69
2016-05-06T07:03:23.615Z,22.09
2016-05-06T07:04:23.429Z,22.67
2016-05-06T07:05:23.416Z,23.22
2016-05-06T07:06:23.559Z,23.62
2016-05-06T07:07:23.391Z,24.13
2016-05-06T07:08:23.519Z,24.5
2016-05-06T07:09:23.505Z,24.82
2016-05-06T07:10:23.337Z,25.27
2016-05-06T07:11:23.433Z,25.52
2016-05-06T07:12:23.513Z,25.79
2016-05-06T07:13:23.453Z,26.11
2016-05-06T07:14:23.441Z,26.17
2016-05-06T07:15:23.271Z,26.28
2016-05-06T07:16:23.102Z,26.59
2016-05-06T07:17:23.246Z,26.95
2016-05-06T07:18:23.389Z,27.26
2016-05-06T07:19:23.392Z,27.71
2016-05-06T07:20:23.379Z,27.79
2016-05-06T07:21:23.366Z,27.84
2016-05-06T07:22:23.337Z,27.89
2016-05-06T07:23:23.345Z,27.98
2016-05-06T07:24:23.332Z,28.1
2016-05-06T07:25:23.162Z,28.17
2016-05-06T07:26:23.243Z,27.91
2016-05-06T07:27:23.309Z,28.09
2016-05-06T07:28:23.140Z,28.11
2016-05-06T07:29:23.283Z,27.99
2016-05-06T07:30:23.286Z,28.03
2016-05-06T07:31:23.117Z,28.19
2016-05-06T07:32:23.260Z,28.4
2016-05-06T07:33:23.248Z,28.28
2016-05-06T07:34:23.078Z,28.69
2016-05-06T07:35:23.236Z,29
2016-05-06T07:36:23.223Z,29.13
2016-05-06T07:37:23.226Z,29.34
2016-05-06T07:38:23.197Z,29.47
2016-05-06T07:39:23.185Z,29.56
2016-05-06T07:40:23.188Z,29.74
2016-05-06T07:41:23.191Z,29.62
2016-05-06T07:42:23.177Z,29.93
2016-05-06T07:43:23.164Z,29.72
2016-05-06T07:44:23.167Z,29.49
2016-05-06T07:45:23.154Z,29.25
2016-05-06T07:46:23.157Z,29.2
2016-05-06T07:47:23.144Z,29.52
2016-05-06T07:48:23.130Z,29.59
2016-05-06T07:49:23.119Z,29.96
2016-05-06T07:50:23.121Z,30.26
2016-05-06T07:51:23.107Z,30.3
2016-05-06T07:52:23.095Z,30.26
2016-05-06T07:53:22.957Z,30.3
2016-05-06T07:54:22.928Z,29.87
2016-05-06T07:55:23.087Z,29.59
2016-05-06T07:56:23.777Z,29.62
2016-05-06T07:57:23.077Z,29.71
2016-05-06T07:58:23.064Z,29.37
2016-05-06T07:59:23.052Z,29.44
2016-05-06T08:00:23.054Z,29.87
2016-05-06T08:01:23.040Z,29.52
2016-05-06T08:02:23.043Z,29.55
2016-05-06T08:03:23.031Z,29.93
2016-05-06T08:04:23.033Z,30.33
2016-05-06T08:05:23.020Z,30.67
2016-05-06T08:06:22.851Z,30.45
2016-05-06T08:07:22.995Z,30.46
2016-05-06T08:08:22.997Z,30.47
2016-05-06T08:09:22.984Z,30.43
2016-05-06T08:10:22.987Z,30.74
2016-05-06T08:11:22.833Z,31.08
2016-05-06T08:12:22.977Z,31.2
2016-05-06T08:13:22.963Z,30.91
2016-05-06T08:14:22.951Z,30.71
2016-05-06T08:15:24.188Z,30.89
2016-05-06T08:16:22.956Z,31.13
2016-05-06T08:17:22.943Z,31.12
2016-05-06T08:18:22.930Z,31.02
2016-05-06T08:19:22.933Z,31.08
2016-05-06T08:20:22.779Z,31.4
2016-05-06T08:21:22.923Z,31.5
2016-05-06T08:22:22.926Z,31.13
2016-05-06T08:23:22.913Z,31.27
2016-05-06T08:24:22.915Z,31.2
2016-05-06T08:25:22.746Z,31.48
2016-05-06T08:26:22.608Z,31.75
2016-05-06T08:27:22.892Z,31.85
2016-05-06T08:28:22.738Z,31.84
2016-05-06T08:29:22.898Z,32.02
2016-05-06T08:30:22.868Z,31.8
2016-05-06T08:31:22.871Z,31.15
2016-05-06T08:32:22.874Z,31.26
2016-05-06T08:33:22.971Z,30.8
2016-05-06T08:34:22.786Z,31.27
2016-05-06T08:35:22.867Z,31.2
2016-05-06T08:36:22.870Z,30.71
2016-05-06T08:37:22.872Z,31.04
2016-05-06T08:38:22.859Z,31.17
2016-05-06T08:39:22.846Z,31.43
2016-05-06T08:40:22.678Z,31.12
2016-05-06T08:41:22.695Z,31.48
2016-05-06T08:42:22.839Z,31.27
2016-05-06T08:43:22.857Z,30.98
2016-05-06T08:44:22.656Z,31.33
2016-05-06T08:45:22.659Z,31.23
2016-05-06T08:46:22.833Z,31.45
2016-05-06T08:47:22.805Z,31.6
2016-05-06T08:48:22.792Z,31.43
2016-05-06T08:49:22.794Z,30.91
2016-05-06T08:50:22.641Z,30.59
2016-05-06T08:51:22.629Z,29.4
2016-05-06T08:52:22.787Z,28.91
2016-05-06T08:53:22.775Z,28.31
2016-05-06T08:54:22.762Z,27.84
2016-05-06T08:55:22.749Z,27.1
2016-05-06T08:56:22.595Z,26.52
2016-05-06T08:57:22.738Z,25.97
2016-05-06T08:58:22.726Z,25.83
2016-05-06T08:59:22.729Z,25.57
2016-05-06T09:00:22.699Z,25.27
2016-05-06T09:01:22.702Z,24.92
2016-05-06T09:02:22.704Z,24.92
2016-05-06T09:03:22.677Z,24.76
2016-05-06T09:04:22.664Z,24.71
2016-05-06T09:05:22.651Z,24.17
2016-05-06T09:06:22.637Z,23.95
2016-05-06T09:07:22.640Z,23.83
2016-05-06T09:08:22.627Z,23.71
2016-05-06T09:09:22.598Z,23.64
2016-05-06T09:10:22.586Z,23.64
2016-05-06T09:11:22.448Z,23.6
2016-05-06T09:12:22.561Z,23.45
2016-05-06T09:13:22.563Z,23.35
2016-05-06T09:14:22.550Z,23.15
2016-05-06T09:15:22.521Z,23.02
2016-05-06T09:16:22.508Z,22.87
2016-05-06T09:17:22.495Z,22.87
2016-05-06T09:18:22.498Z,22.86
2016-05-06T09:19:22.469Z,22.52
2016-05-06T09:20:22.457Z,22.41
2016-05-06T09:21:22.427Z,22.37
2016-05-06T09:22:22.447Z,22.32
2016-05-06T09:23:22.418Z,22.27
2016-05-06T09:24:22.404Z,22.2
2016-05-06T09:25:22.392Z,22.2
2016-05-06T09:26:23.161Z,21.98
2016-05-06T09:27:22.382Z,22.06
2016-05-06T09:28:22.338Z,21.99
2016-05-06T09:29:22.168Z,22.01
2016-05-06T09:30:22.155Z,22.02
2016-05-06T09:31:22.142Z,21.99
2016-05-06T09:32:22.285Z,21.85
2016-05-06T09:33:22.117Z,21.82
2016-05-06T09:34:22.245Z,21.81
2016-05-06T09:35:22.091Z,21.76
2016-05-06T09:36:22.250Z,21.79
2016-05-06T09:37:22.049Z,21.82
2016-05-06T09:38:22.037Z,21.79
2016-05-06T09:39:22.179Z,21.81
2016-05-06T09:40:22.167Z,21.85
2016-05-06T09:41:23.873Z,21.85
2016-05-06T09:42:22.141Z,21.81
2016-05-06T09:43:22.159Z,21.83
2016-05-06T09:44:22.100Z,21.82
2016-05-06T09:45:22.087Z,21.94
2016-05-06T09:46:22.073Z,21.94
2016-05-06T09:47:22.045Z,21.82
2016-05-06T09:48:22.064Z,22.01
2016-05-06T09:49:22.019Z,21.98
2016-05-06T09:50:22.005Z,22.06
2016-05-06T09:51:22.009Z,22.09
2016-05-06T09:52:21.980Z,22.12
2016-05-06T09:53:21.967Z,22.09
2016-05-06T09:54:21.939Z,22.13
2016-05-06T09:55:21.926Z,22.09
2016-05-06T09:56:21.788Z,22.02
2016-05-06T09:57:21.900Z,22.02
2016-05-06T09:58:21.887Z,21.83
2016-05-06T09:59:21.858Z,21.79
2016-05-06T10:00:21.689Z,22.02
2016-05-06T10:01:21.693Z,22.01
2016-05-06T10:02:21.851Z,22.07
2016-05-06T10:03:21.806Z,22.02
2016-05-06T10:04:21.638Z,22.01
2016-05-06T10:05:21.781Z,22.04
2016-05-06T10:06:21.767Z,22.06
2016-05-06T10:07:21.740Z,22.01
2016-05-06T10:08:21.601Z,22.02
2016-05-06T10:09:21.557Z,22.06
2016-05-06T10:10:21.545Z,21.82
2016-05-06T10:11:22.328Z,21.94
2016-05-06T10:12:21.690Z,22.02
2016-05-06T10:13:21.506Z,21.97
2016-05-06T10:14:21.634Z,22.12
2016-05-06T10:15:21.636Z,22.16
2016-05-06T10:16:21.608Z,22.12
2016-05-06T10:17:21.594Z,22.16
2016-05-06T10:18:21.581Z,22.23
2016-05-06T10:19:21.397Z,22.22
2016-05-06T10:20:21.571Z,22.27
2016-05-06T10:21:21.543Z,22.12
2016-05-06T10:22:21.514Z,22.06
2016-05-06T10:23:21.345Z,22.07
2016-05-06T10:24:21.488Z,22.06
2016-05-06T10:25:21.459Z,22.12
2016-05-06T10:26:25.385Z,22.12
2016-05-06T10:27:21.293Z,22.23
2016-05-06T10:28:25.077Z,22.31
2016-05-06T10:29:24.814Z,22.31
2016-05-06T10:30:21.410Z,22.28
2016-05-06T10:31:21.382Z,22.35
2016-05-06T10:32:21.682Z,22.49
2016-05-06T10:33:25.450Z,22.5
2016-05-06T10:34:25.577Z,22.62
2016-05-06T10:35:24.940Z,22.62
2016-05-06T10:36:21.176Z,22.74
2016-05-06T10:37:24.632Z,22.62
2016-05-06T10:38:22.088Z,22.59
2016-05-06T10:39:21.247Z,22.74
2016-05-06T10:40:21.234Z,22.74
2016-05-06T10:41:21.081Z,22.82
2016-05-06T10:42:21.209Z,22.87
2016-05-06T10:43:21.039Z,22.9
2016-05-06T10:44:21.026Z,22.99
2016-05-06T10:45:21.170Z,23.02
2016-05-06T10:46:21.141Z,22.92
2016-05-06T10:47:22.347Z,22.96
2016-05-06T10:48:21.115Z,22.99
2016-05-06T10:49:21.102Z,23.04
2016-05-06T10:50:21.090Z,22.97
2016-05-06T10:51:21.077Z,22.93
2016-05-06T10:52:21.079Z,23.04
2016-05-06T10:53:21.035Z,23.08
2016-05-06T10:54:20.881Z,22.99
2016-05-06T10:55:21.025Z,23.09
2016-05-06T10:56:22.887Z,23.14
2016-05-06T10:57:20.827Z,23.17
2016-05-06T10:58:20.971Z,23.27
2016-05-06T10:59:20.957Z,23.27
2016-05-06T11:00:20.945Z,23.35
2016-05-06T11:01:20.946Z,23.29
2016-05-06T11:02:20.935Z,23.4
2016-05-06T11:03:20.749Z,23.27
2016-05-06T11:04:20.908Z,23.45
2016-05-06T11:05:20.754Z,23.42
2016-05-06T11:06:20.882Z,23.49
2016-05-06T11:07:20.838Z,23.46
2016-05-06T11:08:24.998Z,23.46
2016-05-06T11:09:24.359Z,23.57
2016-05-06T11:10:23.159Z,23.62
2016-05-06T11:11:24.990Z,23.76
2016-05-06T11:12:25.415Z,23.68
2016-05-06T11:13:24.776Z,23.68
2016-05-06T11:14:24.935Z,23.79
2016-05-06T11:15:24.595Z,23.64
2016-05-06T11:16:24.972Z,23.76
2016-05-06T11:17:24.709Z,23.77
2016-05-06T11:18:24.837Z,23.86
2016-05-06T11:19:25.136Z,23.86
2016-05-06T11:20:23.795Z,23.89
2016-05-06T11:21:20.642Z,23.87
2016-05-06T11:22:20.645Z,23.87
2016-05-06T11:23:20.663Z,23.76
2016-05-06T11:24:20.586Z,23.85
2016-05-06T11:25:20.575Z,23.86
2016-05-06T11:26:20.842Z,23.92
2016-05-06T11:27:20.392Z,23.85
2016-05-06T11:28:20.536Z,23.89
2016-05-06T11:29:20.538Z,23.83
2016-05-06T11:30:20.494Z,23.92
2016-05-06T11:31:20.497Z,23.92
2016-05-06T11:32:20.483Z,24.02
2016-05-06T11:33:20.455Z,23.98
2016-05-06T11:34:20.458Z,24.01
2016-05-06T11:35:20.445Z,23.97
2016-05-06T11:36:20.292Z,23.97
2016-05-06T11:37:20.419Z,23.97
2016-05-06T11:38:20.390Z,24.05
2016-05-06T11:39:20.378Z,24.08
2016-05-06T11:40:20.365Z,24.08
2016-05-06T11:41:20.352Z,24.05
2016-05-06T11:42:20.339Z,24.07
2016-05-06T11:43:20.326Z,24.19
2016-05-06T11:44:20.157Z,24.08
2016-05-06T11:45:20.315Z,24.13
2016-05-06T11:46:20.287Z,24.08
2016-05-06T11:47:20.259Z,23.98
2016-05-06T11:48:20.261Z,24.01
2016-05-06T11:49:20.233Z,24.01
2016-05-06T11:50:20.220Z,23.98
2016-05-06T11:51:20.207Z,23.97
2016-05-06T11:52:20.194Z,23.9
2016-05-06T11:53:20.025Z,23.89
2016-05-06T11:54:20.012Z,24
2016-05-06T11:55:20.155Z,23.89
2016-05-06T11:56:20.142Z,23.92
2016-05-06T11:57:19.972Z,23.92
2016-05-06T11:58:21.679Z,23.92
2016-05-06T11:59:21.431Z,24.08
2016-05-06T12:00:20.090Z,24.17
2016-05-06T12:01:20.078Z,24.1
2016-05-06T12:02:20.064Z,24.16
2016-05-06T12:03:20.036Z,24.16
2016-05-06T12:04:20.023Z,24.16
2016-05-06T12:05:20.011Z,24.1
2016-05-06T12:06:19.997Z,24.14
2016-05-06T12:07:19.968Z,23.95
2016-05-06T12:08:19.988Z,24.07
2016-05-06T12:09:19.958Z,24.16
2016-05-06T12:10:19.946Z,24.17
2016-05-06T12:11:20.542Z,24.19
2016-05-06T12:12:19.748Z,24.2
2016-05-06T12:13:19.891Z,24.2
2016-05-06T12:14:19.893Z,24.31
2016-05-06T12:15:19.709Z,24.23
2016-05-06T12:16:19.851Z,24.29
2016-05-06T12:17:19.840Z,24.29
2016-05-06T12:18:19.826Z,24.26
2016-05-06T12:19:19.657Z,24.39
2016-05-06T12:20:19.801Z,24.35
2016-05-06T12:21:19.787Z,24.24
2016-05-06T12:22:19.775Z,24.31
2016-05-06T12:23:19.762Z,24.37
2016-05-06T12:24:19.748Z,24.44
2016-05-06T12:25:19.720Z,24.41
2016-05-06T12:26:19.583Z,24.45
2016-05-06T12:27:19.539Z,24.45
2016-05-06T12:28:19.681Z,24.47
2016-05-06T12:29:19.668Z,24.56
2016-05-06T12:30:19.500Z,24.67
2016-05-06T12:31:19.486Z,24.57
2016-05-06T12:32:19.630Z,24.6
2016-05-06T12:33:19.617Z,24.59
2016-05-06T12:34:19.604Z,24.59
2016-05-06T12:35:19.591Z,24.59
2016-05-06T12:36:19.562Z,24.77
2016-05-06T12:37:19.566Z,24.8
2016-05-06T12:38:19.552Z,24.8
2016-05-06T12:39:19.554Z,24.88
2016-05-06T12:40:20.058Z,24.76
2016-05-06T12:41:20.966Z,24.87
2016-05-06T12:42:19.343Z,24.91
2016-05-06T12:43:19.472Z,24.88
2016-05-06T12:44:19.459Z,24.82
2016-05-06T12:45:19.477Z,24.91
2016-05-06T12:46:19.432Z,24.95
2016-05-06T12:47:19.420Z,24.95
2016-05-06T12:48:19.251Z,25
2016-05-06T12:49:19.238Z,24.94
2016-05-06T12:50:19.226Z,25.05
2016-05-06T12:51:19.368Z,24.95
2016-05-06T12:52:19.199Z,24.98
2016-05-06T12:53:19.342Z,25.02
2016-05-06T12:54:19.329Z,24.97
2016-05-06T12:55:19.317Z,24.94